Time;durP1;ratioP1;P1;durP2;ratioP2;P2;SDS_P1;SDS_P2;PMS_P1;PMS_P2;Temp;Humidity;BMP_temperature;BMP_pressure;BME280_temperature;BME280_humidity;BME280_pressure;Samples;Min_cycle;Max_cycle;Signal;HPM_P1;HPM_P2
2023/12/28 00:04:49;;;;;;;2.92;1.38;;;;;;;7.00;88.28;100310.84;10418810;28;20045;-72
2023/12/28 00:09:50;;;;;;;2.75;1.02;;;;;;;7.24;87.54;100381.63;10419547;28;20044;-72
2023/12/28 00:14:51;;;;;;;4.72;1.08;;;;;;;6.62;82.99;100259.84;10418897;28;20065;-72
2023/12/28 00:19:52;;;;;;;2.28;0.80;;;;;;;7.02;79.46;100371.41;10418995;28;20045;-70
2023/12/28 00:24:52;;;;;;;2.38;0.60;;;;;;;6.51;78.58;100341.00;10419196;28;20051;-72
2023/12/28 00:29:53;;;;;;;1.88;0.55;;;;;;;6.52;79.12;100359.34;10416765;28;20038;-72
2023/12/28 00:34:54;;;;;;;2.33;0.80;;;;;;;5.81;80.14;100256.78;10418087;28;20489;-73
2023/12/28 00:39:55;;;;;;;2.38;0.60;;;;;;;6.25;78.77;100315.22;10417687;28;20049;-72
2023/12/28 00:44:56;;;;;;;2.78;0.50;;;;;;;6.31;76.62;100341.03;10417670;28;20048;-72
2023/12/28 00:49:56;;;;;;;0.82;0.40;;;;;;;6.17;76.35;100344.09;10417270;28;20045;-72
2023/12/28 00:54:57;;;;;;;1.95;0.60;;;;;;;5.96;77.77;100324.94;10417527;28;20034;-73
2023/12/28 00:59:58;;;;;;;1.00;0.30;;;;;;;5.55;75.50;100258.28;10417830;28;20099;-70
2023/12/28 01:04:58;;;;;;;1.42;0.30;;;;;;;5.77;75.83;100331.81;10416045;28;20132;-72
2023/12/28 01:09:59;;;;;;;3.22;0.30;;;;;;;5.65;76.16;100343.44;10417123;28;20083;-73
2023/12/28 01:15:00;;;;;;;1.73;0.60;;;;;;;5.57;77.04;100343.31;10417383;28;20052;-73
2023/12/28 01:20:01;;;;;;;3.15;0.50;;;;;;;5.29;77.78;100335.19;10416527;28;20524;-72
2023/12/28 01:25:02;;;;;;;3.83;0.50;;;;;;;5.30;77.60;100365.00;10416309;28;20041;-72
2023/12/28 01:30:03;;;;;;;1.77;0.45;;;;;;;5.21;79.21;100364.84;10415622;28;20064;-72
2023/12/28 01:35:05;;;;;;;1.77;0.55;;;;;;;5.10;78.28;100353.56;10415369;28;20057;-72
2023/12/28 01:40:06;;;;;;;2.03;0.40;;;;;;;4.80;77.56;100294.69;10416138;28;20457;-73
2023/12/28 01:45:08;;;;;;;2.00;0.60;;;;;;;4.90;76.24;100335.03;10410327;28;20045;-72
2023/12/28 01:50:09;;;;;;;1.27;0.40;;;;;;;4.85;76.73;100313.56;10414698;28;20037;-72
2023/12/28 01:55:10;;;;;;;3.50;0.50;;;;;;;4.28;76.67;100241.28;10414476;28;20041;-73
2023/12/28 02:00:12;;;;;;;1.08;0.35;;;;;;;4.29;76.35;100254.28;10415066;28;20051;-72
2023/12/28 02:05:13;;;;;;;1.63;0.40;;;;;;;4.39;76.95;100291.16;10414447;28;20091;-72
2023/12/28 02:10:14;;;;;;;1.40;0.40;;;;;;;4.32;78.13;100314.50;10414727;28;20044;-73
2023/12/28 02:15:14;;;;;;;0.50;0.30;;;;;;;4.17;79.14;100270.25;10414281;28;20056;-73
2023/12/28 02:20:17;;;;;;;1.80;0.50;;;;;;;4.20;79.77;100299.75;10413715;28;20037;-72
2023/12/28 02:25:18;;;;;;;1.85;0.50;;;;;;;4.03;80.08;100284.53;10414340;28;20492;-74
2023/12/28 02:30:22;;;;;;;1.42;0.35;;;;;;;3.48;81.04;100184.84;10413678;28;20083;-71
2023/12/28 02:35:45;;;;;;;2.60;0.60;;;;;;;3.86;80.26;100243.91;10412750;28;20408;-70
2023/12/28 02:40:48;;;;;;;1.73;0.50;;;;;;;3.87;79.94;100277.09;10411213;28;20125;-71
2023/12/28 02:45:49;;;;;;;2.53;0.20;;;;;;;3.94;79.94;100291.41;10409184;28;20053;-71
2023/12/28 02:50:50;;;;;;;2.08;0.40;;;;;;;3.96;79.24;100326.28;10406998;28;20071;-72
2023/12/28 02:55:51;;;;;;;1.95;0.40;;;;;;;3.72;80.30;100330.91;10405184;28;20509;-71
2023/12/28 03:00:51;;;;;;;1.90;0.50;;;;;;;3.42;80.88;100317.50;10405197;28;20049;-74
2023/12/28 03:05:52;;;;;;;1.65;0.50;;;;;;;3.75;81.48;100391.94;10411950;28;20036;-75
2023/12/28 03:10:55;;;;;;;1.88;0.40;;;;;;;3.46;81.58;100333.84;10412959;28;20397;-73
2023/12/28 03:15:55;;;;;;;1.63;0.52;;;;;;;3.84;81.00;100379.84;10412710;28;20041;-74
2023/12/28 03:20:56;;;;;;;3.47;0.65;;;;;;;3.83;81.68;100372.94;10410665;28;20559;-74
2023/12/28 03:25:57;;;;;;;5.10;0.85;;;;;;;3.86;82.10;100385.81;10409482;28;20408;-73
2023/12/28 03:30:58;;;;;;;6.82;0.73;;;;;;;3.86;83.20;100415.56;10419369;28;20049;-70
2023/12/28 03:35:59;;;;;;;4.60;0.68;;;;;;;3.65;83.87;100401.50;10419942;28;20108;-78
2023/12/28 03:41:00;;;;;;;5.97;1.63;;;;;;;3.73;84.40;100399.09;10419410;28;20087;-72
2023/12/28 03:46:01;;;;;;;3.35;1.27;;;;;;;3.85;84.15;100413.88;10419308;28;20052;-71
2023/12/28 03:51:02;;;;;;;2.15;0.60;;;;;;;3.89;83.44;100407.44;10419725;28;20400;-67
2023/12/28 03:56:03;;;;;;;2.72;0.90;;;;;;;3.78;83.15;100370.66;10419589;28;20053;-70
2023/12/28 04:01:04;;;;;;;3.10;1.00;;;;;;;3.93;82.63;100421.16;10420658;28;20123;-71
2023/12/28 04:06:05;;;;;;;4.35;1.00;;;;;;;3.75;82.64;100406.88;10418458;28;20132;-74
2023/12/28 04:11:06;;;;;;;4.82;0.60;;;;;;;3.58;81.68;100372.25;10418706;28;20042;-75
2023/12/28 04:16:09;;;;;;;3.05;0.73;;;;;;;3.56;81.26;100373.31;10419482;28;20142;-74
2023/12/28 04:21:13;;;;;;;2.85;0.77;;;;;;;3.60;80.94;100406.28;10418608;28;20041;-73
2023/12/28 04:26:14;;;;;;;2.95;0.80;;;;;;;3.81;81.46;100466.81;10415488;28;20052;-71
2023/12/28 04:31:15;;;;;;;5.22;0.80;;;;;;;3.76;82.30;100487.34;10418237;28;20052;-73
2023/12/28 04:36:16;;;;;;;3.80;1.05;;;;;;;3.81;82.19;100516.72;10415288;28;20128;-73
2023/12/28 04:41:16;;;;;;;2.50;0.60;;;;;;;3.49;82.60;100459.66;10417755;28;20501;-73
2023/12/28 04:46:17;;;;;;;4.38;0.77;;;;;;;3.76;83.08;100521.50;10418443;28;20041;-72
2023/12/28 04:51:18;;;;;;;3.47;1.10;;;;;;;3.78;84.31;100545.88;10416666;28;20497;-73
2023/12/28 04:56:19;;;;;;;3.15;0.77;;;;;;;3.70;83.98;100554.34;10417608;28;20041;-73
2023/12/28 05:01:20;;;;;;;1.55;0.60;;;;;;;3.75;84.32;100580.28;10416936;28;20042;-75
2023/12/28 05:06:21;;;;;;;5.47;1.20;;;;;;;3.62;84.54;100588.25;10416986;28;20041;-75
2023/12/28 05:11:21;;;;;;;3.35;1.00;;;;;;;3.71;84.71;100616.47;10416346;28;20046;-73
2023/12/28 05:16:22;;;;;;;3.90;1.40;;;;;;;3.74;85.13;100610.13;10416703;28;20424;-74
2023/12/28 05:21:23;;;;;;;4.25;1.58;;;;;;;3.56;84.51;100593.97;10415939;28;20038;-75
2023/12/28 05:26:24;;;;;;;4.57;1.48;;;;;;;3.89;85.26;100645.75;10416949;28;20037;-76
2023/12/28 05:31:24;;;;;;;3.75;0.98;;;;;;;4.03;84.72;100661.28;10414456;28;20056;-75
2023/12/28 05:36:25;;;;;;;3.40;0.90;;;;;;;4.17;84.93;100683.88;10415683;28;20079;-74
2023/12/28 05:41:26;;;;;;;2.72;1.00;;;;;;;4.33;84.76;100691.41;10416490;28;20041;-74
2023/12/28 05:46:27;;;;;;;3.45;1.13;;;;;;;4.39;84.55;100695.38;10415882;28;20096;-74
2023/12/28 05:51:27;;;;;;;4.45;0.90;;;;;;;4.53;83.59;100740.69;10415239;28;20041;-74
2023/12/28 05:56:28;;;;;;;3.72;1.10;;;;;;;4.68;83.05;100738.66;10414598;28;20048;-75
2023/12/28 06:01:29;;;;;;;6.57;1.45;;;;;;;4.68;81.90;100735.19;10415166;28;20041;-76
2023/12/28 06:06:30;;;;;;;2.08;0.70;;;;;;;4.74;81.39;100725.03;10414336;28;20037;-75
2023/12/28 06:11:31;;;;;;;2.25;0.75;;;;;;;4.80;81.05;100734.22;10415022;28;20099;-72
2023/12/28 06:16:33;;;;;;;3.95;0.93;;;;;;;4.86;81.84;100736.38;10414396;28;20041;-74
2023/12/28 06:21:34;;;;;;;3.15;0.85;;;;;;;4.65;81.92;100717.03;10413793;28;20043;-71
2023/12/28 06:26:39;;;;;;;4.50;0.85;;;;;;;4.68;82.43;100748.34;10414083;28;20042;-71
2023/12/28 06:31:40;;;;;;;2.85;0.80;;;;;;;5.03;83.19;100775.38;10413467;28;20099;-76
2023/12/28 06:37:31;;;;;;;3.33;1.10;;;;;;;5.51;83.98;100815.53;10412230;28;20136;-74
2023/12/28 06:42:32;;;;;;;2.55;0.70;;;;;;;5.24;83.54;100791.25;10413643;28;20540;-74
2023/12/28 06:47:33;;;;;;;4.70;1.10;;;;;;;5.11;84.67;100843.22;10413548;28;20140;-73
2023/12/28 06:52:33;;;;;;;4.30;0.88;;;;;;;4.53;86.24;100832.78;10413827;28;20037;-74
2023/12/28 06:57:34;;;;;;;3.75;1.10;;;;;;;3.32;90.68;100885.50;10412586;28;20436;-76
2023/12/28 07:02:35;;;;;;;1.67;0.70;;;;;;;2.71;95.77;100901.91;10412699;28;20124;-74
2023/12/28 07:07:36;;;;;;;1.75;0.70;;;;;;;1.90;99.49;100830.47;10413042;28;20091;-72
2023/12/28 07:12:37;;;;;;;1.92;0.75;;;;;;;2.32;100.00;100901.97;10412584;28;20041;-74
2023/12/28 07:17:39;;;;;;;2.03;0.80;;;;;;;2.57;100.00;100904.63;10412290;28;20091;-72
2023/12/28 07:22:39;;;;;;;3.42;0.80;;;;;;;2.48;100.00;100851.03;10412855;28;20045;-75
2023/12/28 07:27:41;;;;;;;2.58;0.60;;;;;;;3.09;100.00;100842.50;10412680;28;20045;-76
2023/12/28 07:32:42;;;;;;;1.73;0.90;;;;;;;3.62;100.00;100896.47;10413236;28;20459;-73
2023/12/28 07:37:44;;;;;;;2.92;1.08;;;;;;;3.37;100.00;100846.63;10412775;28;20049;-74
2023/12/28 07:42:45;;;;;;;1.58;0.80;;;;;;;3.52;100.00;100886.72;10412436;28;20052;-73
2023/12/28 07:47:46;;;;;;;1.88;0.70;;;;;;;3.57;100.00;100880.19;10412334;28;20041;-74
2023/12/28 07:52:48;;;;;;;5.60;0.88;;;;;;;3.15;100.00;100852.56;10411752;28;20037;-72
2023/12/28 07:57:49;;;;;;;1.95;0.80;;;;;;;3.10;100.00;100905.38;10412249;28;20042;-75
2023/12/28 08:02:49;;;;;;;2.35;1.00;;;;;;;3.39;100.00;100897.25;10412163;28;20120;-76
2023/12/28 08:07:50;;;;;;;2.38;1.05;;;;;;;3.63;100.00;100864.00;10412025;28;20573;-76
2023/12/28 08:12:51;;;;;;;2.47;1.30;;;;;;;4.29;100.00;100903.03;10413677;28;20038;-75
2023/12/28 08:17:51;;;;;;;2.55;0.90;;;;;;;4.16;97.82;100829.47;10418738;28;20049;-76
2023/12/28 08:22:52;;;;;;;2.60;0.98;;;;;;;4.44;96.97;100898.41;10418378;28;20560;-77
2023/12/28 08:27:53;;;;;;;4.32;1.20;;;;;;;4.74;93.29;100884.72;10419262;28;20128;-74
2023/12/28 08:32:54;;;;;;;5.30;1.20;;;;;;;5.04;90.56;100856.03;10418537;28;20432;-76
2023/12/28 08:37:55;;;;;;;2.78;1.00;;;;;;;4.98;87.29;100840.72;10418291;28;20057;-75
2023/12/28 08:42:55;;;;;;;2.53;1.08;;;;;;;5.03;84.62;100821.94;10418137;28;20073;-76
2023/12/28 08:47:56;;;;;;;2.08;0.90;;;;;;;5.66;83.36;100899.47;10418060;28;20037;-77
2023/12/28 08:52:57;;;;;;;8.93;1.23;;;;;;;5.69;80.80;100883.41;10416711;28;20049;-76
2023/12/28 08:57:58;;;;;;;1.77;0.80;;;;;;;5.86;79.61;100894.38;10417736;28;20048;-79
2023/12/28 09:02:58;;;;;;;2.50;0.60;;;;;;;6.00;76.09;100919.66;10417474;28;20049;-77
2023/12/28 09:07:59;;;;;;;1.88;0.60;;;;;;;5.98;74.38;100922.41;10417215;28;20041;-73
2023/12/28 09:13:00;;;;;;;6.47;0.65;;;;;;;5.89;73.96;100921.34;10416866;28;20548;-77
2023/12/28 09:18:01;;;;;;;1.77;0.70;;;;;;;5.67;74.20;100942.47;10416879;28;20041;-73
2023/12/28 09:23:01;;;;;;;1.58;0.70;;;;;;;5.57;74.62;100918.66;10416108;28;20124;-72
2023/12/28 09:28:02;;;;;;;1.85;0.60;;;;;;;5.80;74.36;100924.69;10415242;28;20063;-72
2023/12/28 09:33:04;;;;;;;3.15;0.68;;;;;;;6.00;74.06;100932.84;10415798;28;20402;-75
2023/12/28 09:38:04;;;;;;;2.75;0.90;;;;;;;6.24;74.58;100930.84;10416510;28;20057;-76
2023/12/28 09:43:25;;;;;;;1.63;0.80;;;;;;;6.09;73.40;100945.28;10416352;28;20049;-74
2023/12/28 09:48:25;;;;;;;3.28;0.70;;;;;;;6.21;72.64;100939.00;10416464;28;20033;-76
2023/12/28 09:53:26;;;;;;;2.58;0.98;;;;;;;6.05;72.94;100914.88;10416676;28;20460;-75
2023/12/28 09:58:29;;;;;;;3.47;0.80;;;;;;;5.82;73.68;100932.50;10415689;28;20038;-76
2023/12/28 10:03:30;;;;;;;2.10;0.70;;;;;;;6.40;68.46;100962.09;10415280;28;20041;-73
2023/12/28 10:08:31;;;;;;;2.55;0.80;;;;;;;6.34;64.94;100937.06;10414980;28;20045;-74
2023/12/28 10:13:33;;;;;;;2.95;0.60;;;;;;;6.18;65.33;100955.09;10414413;28;20124;-74
2023/12/28 10:18:35;;;;;;;1.90;0.73;;;;;;;6.12;66.69;100955.59;10413703;28;20588;-72
2023/12/28 10:23:36;;;;;;;2.05;0.90;;;;;;;5.88;67.31;100961.84;10414778;28;20079;-75
2023/12/28 10:28:39;;;;;;;2.13;0.70;;;;;;;5.99;67.51;100952.28;10415040;28;20041;-75
2023/12/28 10:33:40;;;;;;;1.52;0.60;;;;;;;5.82;67.56;100858.69;10414541;28;20051;-71
2023/12/28 10:38:43;;;;;;;1.33;0.60;;;;;;;6.38;65.60;100942.94;10413677;28;20061;-76
2023/12/28 10:43:51;;;;;;;3.30;0.57;;;;;;;6.14;65.28;100964.22;10413642;28;20041;-75
2023/12/28 10:48:58;;;;;;;1.35;0.57;;;;;;;5.62;66.21;100934.06;10413489;28;20095;-73
2023/12/28 10:54:31;;;;;;;1.75;0.75;;;;;;;5.82;66.39;100979.97;10413574;28;20048;-72
2023/12/28 10:59:38;;;;;;;1.25;0.40;;;;;;;5.82;64.30;100978.16;10413305;28;20045;-70
2023/12/28 11:04:46;;;;;;;4.00;0.50;;;;;;;5.58;64.57;100999.38;10412606;28;20045;-72
2023/12/28 11:09:48;;;;;;;2.78;0.85;;;;;;;5.34;66.20;100993.38;10412627;28;20141;-74
2023/12/28 11:14:52;;;;;;;1.63;0.50;;;;;;;5.18;65.66;101005.09;10413409;28;20069;-75
2023/12/28 11:19:54;;;;;;;1.85;0.55;;;;;;;5.10;65.09;101017.16;10412831;28;20077;-74
2023/12/28 11:24:56;;;;;;;1.45;0.60;;;;;;;4.93;66.64;101006.09;10412888;28;20041;-72
2023/12/28 11:29:57;;;;;;;3.17;0.63;;;;;;;5.01;65.79;100995.00;10412319;28;20044;-74
2023/12/28 11:34:58;;;;;;;4.72;1.05;;;;;;;4.99;65.85;100963.50;10413168;28;20144;-71
2023/12/28 11:40:10;;;;;;;1.73;0.40;;;;;;;5.28;67.65;101036.00;10412821;28;20060;-73
2023/12/28 11:45:11;;;;;;;1.42;0.55;;;;;;;5.27;66.80;101024.63;10410985;28;20045;-70
2023/12/28 11:50:13;;;;;;;2.15;0.68;;;;;;;5.25;66.97;101021.25;10418140;28;20045;-70
2023/12/28 11:55:22;;;;;;;1.67;0.60;;;;;;;5.19;66.26;101014.66;10419554;28;20501;-73
2023/12/28 12:00:25;;;;;;;7.97;0.70;;;;;;;5.08;67.20;101013.78;10418323;28;20049;-74
2023/12/28 12:05:27;;;;;;;1.17;0.47;;;;;;;5.11;66.85;101018.84;10419421;28;20421;-74
2023/12/28 12:10:28;;;;;;;1.70;0.63;;;;;;;5.09;67.34;101032.13;10418633;28;20045;-73
2023/12/28 12:15:30;;;;;;;1.23;0.50;;;;;;;4.64;67.71;100975.88;10419250;28;20053;-73
2023/12/28 12:20:31;;;;;;;1.48;0.47;;;;;;;4.97;67.52;101041.78;10417611;28;20095;-73
2023/12/28 12:25:31;;;;;;;1.23;0.65;;;;;;;4.74;68.22;101022.44;10412342;28;20442;-75
2023/12/28 12:30:32;;;;;;;3.08;0.60;;;;;;;4.82;68.98;101050.84;10410248;28;20049;-74
2023/12/28 12:35:33;;;;;;;1.92;0.60;;;;;;;4.38;69.34;101015.44;10418928;28;20140;-75
2023/12/28 12:40:34;;;;;;;2.65;0.88;;;;;;;4.41;70.00;101036.28;10415622;28;20072;-74
2023/12/28 12:45:36;;;;;;;3.53;0.73;;;;;;;4.23;71.22;101034.97;10417471;28;20068;-74
2023/12/28 12:50:37;;;;;;;4.85;0.98;;;;;;;4.32;71.90;101068.50;10417291;28;20111;-74
2023/12/28 12:55:42;;;;;;;9.13;1.00;;;;;;;4.35;71.42;101084.91;10415891;28;20098;-75
2023/12/28 13:00:44;;;;;;;2.30;0.77;;;;;;;4.15;72.14;101072.31;10413958;28;20157;-74
2023/12/28 13:05:45;;;;;;;3.05;1.10;;;;;;;4.10;72.54;101085.81;10415657;28;20061;-72
2023/12/28 13:10:46;;;;;;;3.63;0.60;;;;;;;3.66;72.42;101026.66;10416381;28;20072;-72
2023/12/28 13:15:47;;;;;;;2.58;0.98;;;;;;;3.84;72.29;101079.75;10414978;28;20136;-75
2023/12/28 13:20:48;;;;;;;4.50;1.52;;;;;;;3.52;72.30;101057.47;10395894;28;20046;-74
2023/12/28 13:25:48;;;;;;;2.00;1.00;;;;;;;3.71;72.98;101120.97;10398195;28;20046;-72
2023/12/28 13:30:50;;;;;;;3.13;0.80;;;;;;;3.20;72.91;101058.72;10389394;28;20099;-74
2023/12/28 13:35:52;;;;;;;3.67;0.90;;;;;;;3.50;73.31;101135.53;10392987;28;20057;-74
2023/12/28 13:40:53;;;;;;;3.55;1.42;;;;;;;3.36;74.14;101136.47;10397060;28;20045;-74
2023/12/28 13:45:54;;;;;;;4.63;1.55;;;;;;;3.16;75.20;101130.72;10393843;28;20452;-73
2023/12/28 13:50:55;;;;;;;6.57;1.92;;;;;;;2.85;75.97;101095.16;10394336;28;20044;-80
2023/12/28 13:55:56;;;;;;;5.82;2.00;;;;;;;2.71;76.97;101092.59;10393524;28;20555;-78
2023/12/28 14:00:57;;;;;;;2.97;1.10;;;;;;;2.47;77.75;101087.97;10392050;28;20038;-76
2023/12/28 14:05:57;;;;;;;2.15;0.85;;;;;;;2.76;78.27;101147.41;10397766;28;20068;-75
2023/12/28 14:10:58;;;;;;;3.33;1.27;;;;;;;2.70;78.61;101162.59;10394140;28;20120;-75
2023/12/28 14:15:59;;;;;;;1.85;0.90;;;;;;;2.28;78.55;101095.34;10397781;28;20046;-75
2023/12/28 14:21:00;;;;;;;1.92;0.90;;;;;;;2.57;78.73;101164.28;10396805;28;20087;-76
2023/12/28 14:26:04;;;;;;;2.03;0.70;;;;;;;2.55;78.17;101170.59;10391250;28;20053;-83
2023/12/28 14:31:05;;;;;;;;;;;;;;;2.49;77.83;101175.28;10399671;28;20608;-77
2023/12/28 14:36:49;;;;;;;7.22;2.03;;;;;;;1.88;78.37;101113.50;10389155;28;20028;-81
2023/12/28 14:41:50;;;;;;;2.85;0.90;;;;;;;1.90;78.50;101140.47;10385298;28;20053;-81
2023/12/28 14:46:54;;;;;;;1.75;0.88;;;;;;;2.11;78.71;101176.78;10399974;28;20057;-79
2023/12/28 14:51:55;;;;;;;2.78;0.98;;;;;;;1.41;78.99;101077.06;10410262;28;20524;-78
2023/12/28 14:56:56;;;;;;;1.38;0.60;;;;;;;1.92;79.08;101170.03;10411262;28;20081;-79
2023/12/28 15:01:57;;;;;;;3.30;0.88;;;;;;;1.89;79.36;101174.63;10411509;28;20055;-78
2023/12/28 15:06:58;;;;;;;2.47;1.00;;;;;;;1.66;79.54;101166.34;10411293;28;20100;-77
2023/12/28 15:11:59;;;;;;;2.15;0.85;;;;;;;1.69;79.88;101181.88;10411831;28;20136;-77
2023/12/28 15:17:00;;;;;;;1.77;0.68;;;;;;;1.60;80.27;101187.66;10411833;28;20042;-78
2023/12/28 15:22:01;;;;;;;3.13;0.85;;;;;;;1.51;80.33;101182.97;10414650;28;20493;-78
2023/12/28 15:27:02;;;;;;;3.67;1.05;;;;;;;1.36;80.84;101166.34;10421347;28;20053;-78
2023/12/28 15:32:03;;;;;;;2.85;0.95;;;;;;;1.57;80.98;101222.72;10420338;28;20065;-78
2023/12/28 15:37:06;;;;;;;1.98;0.80;;;;;;;1.60;81.42;101245.28;10420291;28;20133;-81
2023/12/28 15:42:06;;;;;;;2.78;0.95;;;;;;;1.21;80.89;101181.16;10420495;28;20056;-81
2023/12/28 15:47:07;;;;;;;4.38;1.40;;;;;;;1.61;81.71;101262.66;10416417;28;20052;-77
2023/12/28 15:52:08;;;;;;;3.78;1.23;;;;;;;1.53;81.93;101243.94;10418870;28;20045;-79
2023/12/28 15:57:09;;;;;;;1.33;0.68;;;;;;;1.50;82.68;101263.28;10419924;28;20717;-77
2023/12/28 16:02:10;;;;;;;3.67;0.82;;;;;;;1.12;83.59;101206.09;10418066;28;20068;-77
2023/12/28 16:07:10;;;;;;;2.60;0.90;;;;;;;1.22;83.82;101234.34;10419832;28;20048;-77
2023/12/28 16:12:11;;;;;;;3.58;1.10;;;;;;;1.44;84.26;101286.38;10419283;28;20049;-76
2023/12/28 16:17:12;;;;;;;2.85;0.80;;;;;;;1.34;84.36;101283.41;10419661;28;20147;-77
2023/12/28 16:22:13;;;;;;;8.13;1.35;;;;;;;1.37;84.76;101276.22;10419534;28;20045;-77
2023/12/28 16:27:14;;;;;;;5.75;1.52;;;;;;;1.29;85.14;101262.72;10419823;28;20041;-76
2023/12/28 16:32:15;;;;;;;3.90;1.40;;;;;;;1.23;85.53;101238.69;10417426;28;20144;-76
2023/12/28 16:37:16;;;;;;;3.35;1.30;;;;;;;1.29;86.04;101296.75;10417965;28;20053;-76
2023/12/28 16:42:16;;;;;;;4.95;1.55;;;;;;;1.24;86.84;101308.41;10418027;28;20568;-77
2023/12/28 16:47:17;;;;;;;3.05;1.00;;;;;;;1.13;87.58;101314.22;10407236;28;20081;-77
2023/12/28 16:52:18;;;;;;;2.40;0.90;;;;;;;1.05;87.53;101321.66;10396674;28;20585;-77
2023/12/28 16:57:19;;;;;;;2.95;1.20;;;;;;;0.95;87.96;101323.06;10400001;28;20045;-77
2023/12/28 17:02:22;;;;;;;2.20;1.00;;;;;;;0.81;88.31;101314.19;10397121;28;20034;-77
2023/12/28 17:07:24;;;;;;;1.60;0.80;;;;;;;0.83;88.58;101328.00;10396008;28;20045;-77
2023/12/28 17:12:41;;;;;;;3.97;1.17;;;;;;;0.75;90.06;101316.25;10399439;28;20045;-77
2023/12/28 17:17:42;;;;;;;2.78;1.13;;;;;;;0.83;89.08;101333.25;10394659;28;20042;-77
2023/12/28 17:22:50;;;;;;;2.53;0.90;;;;;;;0.78;89.04;101314.34;10403561;28;20046;-77
2023/12/28 17:27:55;;;;;;;2.97;0.95;;;;;;;1.06;88.75;101313.72;10390387;28;20046;-76
2023/12/28 17:33:02;;;;;;;3.10;1.10;;;;;;;1.37;88.22;101349.50;10374177;28;20429;-77
2023/12/28 17:38:05;;;;;;;3.58;1.25;;;;;;;1.52;87.49;101342.59;10375649;28;20054;-77
2023/12/28 17:43:46;;;;;;;8.25;1.05;;;;;;;1.68;88.52;101358.31;10374360;28;20087;-76
2023/12/28 17:48:51;;;;;;;2.38;0.82;;;;;;;1.62;87.43;101361.28;10376952;28;20050;-76
2023/12/28 17:53:52;;;;;;;7.40;1.10;;;;;;;1.63;87.52;101362.13;10374445;28;20494;-77
2023/12/28 17:58:52;;;;;;;9.60;1.10;;;;;;;1.52;87.43;101357.47;10390514;28;20041;-76
2023/12/28 18:03:53;;;;;;;5.10;1.05;;;;;;;1.37;87.88;101336.41;10414573;28;20041;-77
2023/12/28 18:08:54;;;;;;;2.20;0.77;;;;;;;1.53;87.85;101377.50;10415466;28;20048;-77
2023/12/28 18:13:55;;;;;;;2.60;0.95;;;;;;;0.91;87.88;101301.47;10414301;28;20111;-77
2023/12/28 18:18:59;;;;;;;2.42;0.80;;;;;;;1.35;88.50;101403.75;10414391;28;20052;-78
2023/12/28 18:24:00;;;;;;;2.05;0.80;;;;;;;1.12;88.26;101377.97;10414663;28;20052;-77
2023/12/28 18:29:00;;;;;;;2.15;0.90;;;;;;;0.90;88.93;101367.78;10413784;28;20416;-77
2023/12/28 18:34:01;;;;;;;2.55;1.10;;;;;;;1.09;88.82;101405.13;10413673;28;20037;-77
2023/12/28 18:39:03;;;;;;;2.58;1.27;;;;;;;0.96;89.10;101403.22;10412294;28;20053;-78
2023/12/28 18:44:03;;;;;;;1.77;0.65;;;;;;;0.90;89.56;101409.66;10411920;28;20124;-76
2023/12/28 18:49:04;;;;;;;3.03;0.90;;;;;;;0.94;89.92;101416.41;10411007;28;20120;-77
2023/12/28 18:54:05;;;;;;;6.95;1.10;;;;;;;0.88;89.84;101425.41;10412447;28;20041;-78
2023/12/28 18:59:06;;;;;;;3.25;0.88;;;;;;;0.54;90.18;101375.75;10412549;28;20037;-78
2023/12/28 19:04:07;;;;;;;3.55;1.08;;;;;;;0.57;90.12;101380.81;10413316;28;20037;-78
2023/12/28 19:09:07;;;;;;;3.53;0.95;;;;;;;0.33;90.87;101360.25;10410169;28;20498;-77
2023/12/28 19:14:09;;;;;;;6.45;1.48;;;;;;;0.66;91.35;101436.13;10411537;28;20041;-78
2023/12/28 19:19:09;;;;;;;3.53;1.42;;;;;;;0.53;91.46;101429.81;10412689;28;20042;-78
2023/12/28 19:24:10;;;;;;;4.18;1.52;;;;;;;0.46;91.76;101431.06;10412900;28;20128;-78
2023/12/28 19:29:11;;;;;;;2.67;1.10;;;;;;;0.49;92.34;101462.28;10412118;28;20512;-77
2023/12/28 19:34:12;;;;;;;4.63;1.13;;;;;;;0.46;92.38;101465.03;10412482;28;20120;-78
2023/12/28 19:39:13;;;;;;;3.13;1.30;;;;;;;0.16;92.52;101420.34;10411118;28;20053;-78
2023/12/28 19:44:13;;;;;;;4.35;1.20;;;;;;;0.39;93.38;101472.34;10412219;28;20045;-77
2023/12/28 19:49:14;;;;;;;4.53;1.30;;;;;;;0.35;93.28;101483.84;10410611;28;20124;-78
2023/12/28 19:54:15;;;;;;;2.95;1.10;;;;;;;0.20;93.58;101467.13;10412913;28;20052;-77
2023/12/28 19:59:16;;;;;;;2.95;1.02;;;;;;;0.01;93.67;101436.78;10412083;28;20196;-77
2023/12/28 20:04:17;;;;;;;5.85;1.50;;;;;;;0.05;93.43;101454.81;10411431;28;20135;-78
2023/12/28 20:09:18;;;;;;;11.25;1.58;;;;;;;0.11;94.31;101471.97;10416610;28;20033;-78
2023/12/28 20:14:18;;;;;;;10.18;1.75;;;;;;;0.13;94.26;101494.50;10418845;28;20050;-78
2023/12/28 20:19:19;;;;;;;3.00;0.80;;;;;;;-0.23;94.35;101431.78;10419291;28;20042;-78
2023/12/28 20:24:21;;;;;;;2.78;1.30;;;;;;;-0.18;94.55;101432.41;10419164;28;20045;-78
2023/12/28 20:29:21;;;;;;;4.55;1.27;;;;;;;-0.48;94.70;101370.28;10419050;28;20068;-78
2023/12/28 20:34:23;;;;;;;4.32;1.25;;;;;;;-0.04;94.53;101450.03;10417882;28;20044;-78
2023/12/28 20:39:24;;;;;;;2.08;0.90;;;;;;;0.12;94.35;101466.69;10417715;28;20094;-77
2023/12/28 20:44:24;;;;;;;3.70;0.90;;;;;;;0.26;94.67;101499.97;10417498;28;20059;-78
2023/12/28 20:49:25;;;;;;;8.95;1.23;;;;;;;0.32;94.24;101520.59;10418977;28;20048;-80
2023/12/28 20:54:26;;;;;;;11.68;1.50;;;;;;;0.31;94.05;101515.47;10418427;28;20065;-78
2023/12/28 20:59:27;;;;;;;4.93;1.55;;;;;;;0.30;93.96;101509.38;10417504;28;20038;-78
2023/12/28 21:04:28;;;;;;;3.92;1.48;;;;;;;0.32;94.52;101504.06;10416887;28;20044;-78
2023/12/28 21:09:29;;;;;;;11.82;1.70;;;;;;;0.09;94.20;101468.56;10417932;28;20085;-78
2023/12/28 21:14:30;;;;;;;19.20;2.53;;;;;;;-0.10;93.95;101418.97;10416634;28;20069;-78
2023/12/28 21:19:31;;;;;;;4.97;1.23;;;;;;;0.35;93.80;101485.63;10415701;28;20067;-78
2023/12/28 21:24:34;;;;;;;4.43;1.83;;;;;;;0.45;93.97;101511.25;10417095;28;20091;-78
2023/12/28 21:29:39;;;;;;;5.80;1.88;;;;;;;0.41;93.97;101486.16;10416644;28;20037;-78
2023/12/28 21:34:40;;;;;;;3.83;1.77;;;;;;;0.41;93.71;101475.72;10416475;28;20447;-78
2023/12/28 21:39:41;;;;;;;3.30;1.70;;;;;;;0.52;93.26;101490.88;10414244;28;20099;-78
2023/12/28 21:44:42;;;;;;;7.78;1.95;;;;;;;0.03;93.10;101403.56;10414656;28;20566;-78
2023/12/28 21:49:43;;;;;;;10.55;2.22;;;;;;;0.47;93.66;101486.78;10415837;28;20124;-79
2023/12/28 21:54:44;;;;;;;5.30;1.73;;;;;;;0.52;94.05;101508.34;10415125;28;20421;-79
2023/12/28 21:59:45;;;;;;;3.42;1.60;;;;;;;0.59;94.10;101514.97;10415808;28;20045;-78
2023/12/28 22:04:45;;;;;;;3.83;1.77;;;;;;;0.61;93.83;101515.75;10414514;28;20124;-78
2023/12/28 22:09:46;;;;;;;3.75;1.45;;;;;;;0.54;93.47;101496.91;10414880;28;20049;-79
2023/12/28 22:14:47;;;;;;;4.05;1.77;;;;;;;0.43;93.03;101481.72;10414220;28;20044;-79
2023/12/28 22:19:48;;;;;;;4.10;1.40;;;;;;;0.56;93.81;101504.66;10414289;28;20541;-78
2023/12/28 22:24:48;;;;;;;4.03;1.10;;;;;;;0.55;93.29;101510.81;10413829;28;20138;-78
2023/12/28 22:29:49;;;;;;;3.70;1.50;;;;;;;0.16;93.26;101433.41;10413110;28;20049;-78
2023/12/28 22:34:50;;;;;;;5.72;1.40;;;;;;;0.57;93.20;101504.59;10413844;28;20065;-79
2023/12/28 22:39:51;;;;;;;4.93;1.60;;;;;;;0.25;93.07;101458.25;10414351;28;20064;-78
2023/12/28 22:44:52;;;;;;;3.05;1.20;;;;;;;0.53;92.62;101510.88;10413833;28;20049;-79
2023/12/28 22:49:53;;;;;;;2.83;1.23;;;;;;;0.07;92.76;101458.22;10413520;28;20404;-78
2023/12/28 22:54:54;;;;;;;3.47;1.35;;;;;;;0.32;92.96;101511.91;10413582;28;20072;-78
2023/12/28 22:59:55;;;;;;;3.40;1.40;;;;;;;0.18;93.00;101512.56;10413314;28;20099;-78
2023/12/28 23:04:55;;;;;;;3.20;1.67;;;;;;;0.09;92.67;101526.94;10413098;28;20041;-78
2023/12/28 23:09:56;;;;;;;4.40;1.58;;;;;;;-0.33;93.36;101464.44;10413199;28;20171;-78
2023/12/28 23:14:57;;;;;;;2.90;1.27;;;;;;;-0.42;92.90;101444.81;10412617;28;20045;-78
2023/12/28 23:19:58;;;;;;;4.30;2.28;;;;;;;-0.23;92.99;101484.00;10412752;28;20045;-79
2023/12/28 23:24:59;;;;;;;5.75;2.17;;;;;;;-0.16;93.65;101506.31;10412589;28;20464;-78